Time;durP1;ratioP1;P1;durP2;ratioP2;P2;SDS_P1;SDS_P2;PMS_P1;PMS_P2;Temp;Humidity;BMP_temperature;BMP_pressure;BME280_temperature;BME280_humidity;BME280_pressure;Samples;Min_cycle;Max_cycle;Signal;HPM_P1;HPM_P2
2022/01/25 00:31:10;;;;;;;16.17;10.98;;;;;;;;;;4913101;29;20091;-66
2022/01/25 00:33:35;;;;;;;14.55;11.25;;;;;;;;;;4914571;29;20036;-66
2022/01/25 00:36:02;;;;;;;18.45;12.52;;;;;;;;;;4903000;29;20513;-65
2022/01/25 00:38:27;;;;;;;20.08;12.00;;;;;;;;;;4907208;29;20024;-66
2022/01/25 00:40:52;;;;;;;18.27;11.82;;;;;;;;;;4912894;29;20047;-66
2022/01/25 00:43:20;;;;;;;17.30;12.70;;;;;;;;;;4911657;29;20049;-66
2022/01/25 00:45:45;;;;;;;17.33;12.10;;;;;;;;;;4911690;29;20035;-66
2022/01/25 00:48:18;;;;;;;17.55;12.63;;;;;;;;;;4913031;29;20019;-65
2022/01/25 00:50:44;;;;;;;19.65;12.98;;;;;;;;;;4906522;29;20028;-65
2022/01/25 00:55:53;;;;;;;17.27;12.63;;;;;;;;;;4910921;29;20425;-66
2022/01/25 00:58:18;;;;;;;15.68;12.30;;;;;;;;;;4896901;29;20024;-66
2022/01/25 01:00:43;;;;;;;16.52;12.75;;;;;;;;;;4912430;29;20032;-66
2022/01/25 01:03:08;;;;;;;19.85;14.30;;;;;;;;;;4943438;29;20556;-66
2022/01/25 01:05:33;;;;;;;22.15;13.70;;;;;;;;;;4952111;28;20531;-66
2022/01/25 01:07:59;;;;;;;18.40;12.30;;;;;;;;;;4951405;28;20027;-66
2022/01/25 01:10:26;;;;;;;20.08;13.60;;;;;;;;;;4949796;29;20027;-66
2022/01/25 01:15:55;;;;;;;20.95;13.80;;;;;;;;;;4952643;28;20043;-66
2022/01/25 01:29:32;;;;;;;19.88;13.65;;;;;;;;;;4956104;29;20063;-66
2022/01/25 01:32:13;;;;;;;18.98;12.60;;;;;;;;;;4950745;29;20040;-66
2022/01/25 01:35:04;;;;;;;17.70;12.35;;;;;;;;;;4947774;29;20114;-66
2022/01/25 01:37:50;;;;;;;17.63;12.70;;;;;;;;;;4953796;28;20027;-66
2022/01/25 01:45:56;;;;;;;18.35;13.15;;;;;;;;;;4952452;29;20114;-66
2022/01/25 01:50:53;;;;;;;18.52;12.40;;;;;;;;;;4952654;28;20042;-65
2022/01/25 01:53:18;;;;;;;19.50;12.48;;;;;;;;;;4952218;28;20065;-66
2022/01/25 01:55:44;;;;;;;17.67;12.65;;;;;;;;;;4956166;28;20038;-66
2022/01/25 01:58:09;;;;;;;17.00;11.85;;;;;;;;;;4951379;28;20464;-66
2022/01/25 02:00:37;;;;;;;16.98;11.27;;;;;;;;;;4956331;28;20053;-66
2022/01/25 02:03:03;;;;;;;15.02;10.55;;;;;;;;;;4955737;28;20023;-66
2022/01/25 02:05:29;;;;;;;17.02;12.13;;;;;;;;;;4941431;28;20111;-65
2022/01/25 02:07:54;;;;;;;17.30;11.98;;;;;;;;;;4957514;28;20079;-66
2022/01/25 02:10:19;;;;;;;15.75;11.40;;;;;;;;;;4948694;29;20149;-64
2022/01/25 02:12:48;;;;;;;18.75;12.27;;;;;;;;;;4953896;28;20256;-65
2022/01/25 02:15:14;;;;;;;17.75;11.75;;;;;;;;;;4955021;28;20466;-65
2022/01/25 02:22:57;;;;;;;13.40;8.77;;;;;;;;;;4953720;29;20035;-64
2022/01/25 02:25:22;;;;;;;16.00;11.13;;;;;;;;;;4955378;29;20043;-66
2022/01/25 02:27:48;;;;;;;17.17;11.13;;;;;;;;;;4971208;28;20031;-66
2022/01/25 02:30:13;;;;;;;17.38;10.60;;;;;;;;;;4953734;28;20118;-66
2022/01/25 02:32:39;;;;;;;15.52;10.13;;;;;;;;;;4951167;28;20036;-66
2022/01/25 02:35:04;;;;;;;16.33;10.60;;;;;;;;;;4949398;28;20085;-66
2022/01/25 02:37:29;;;;;;;15.48;11.10;;;;;;;;;;4953905;28;20031;-65
2022/01/25 02:39:55;;;;;;;15.90;10.68;;;;;;;;;;4954005;28;20488;-66
2022/01/25 02:42:20;;;;;;;20.35;12.40;;;;;;;;;;4956063;28;20027;-65
2022/01/25 02:44:45;;;;;;;16.35;10.30;;;;;;;;;;4952249;29;20027;-66
2022/01/25 02:49:55;;;;;;;16.67;9.98;;;;;;;;;;4949157;28;20463;-66
2022/01/25 02:52:20;;;;;;;14.20;9.20;;;;;;;;;;4953417;29;20027;-66
2022/01/25 02:54:46;;;;;;;15.43;10.35;;;;;;;;;;4953850;28;20046;-66
2022/01/25 02:57:11;;;;;;;12.40;8.85;;;;;;;;;;4953991;28;20102;-66
2022/01/25 02:59:37;;;;;;;15.23;10.13;;;;;;;;;;4955427;29;20465;-66
2022/01/25 03:02:02;;;;;;;14.60;9.32;;;;;;;;;;4956088;28;20059;-66
2022/01/25 03:04:29;;;;;;;13.40;9.27;;;;;;;;;;4947056;29;20506;-65
2022/01/25 03:06:54;;;;;;;16.60;10.40;;;;;;;;;;4954390;29;20580;-65
2022/01/25 03:09:19;;;;;;;14.77;9.40;;;;;;;;;;4954718;28;20051;-65
2022/01/25 03:11:47;;;;;;;14.45;8.20;;;;;;;;;;4954467;28;20036;-65
2022/01/25 03:14:12;;;;;;;17.05;10.15;;;;;;;;;;4951877;29;20065;-65
2022/01/25 03:16:42;;;;;;;15.85;10.15;;;;;;;;;;4954934;28;20050;-65
2022/01/25 03:21:53;;;;;;;;;;;;;;;;;;4951950;28;20057;-66
2022/01/25 03:24:19;;;;;;;16.70;11.18;;;;;;;;;;4953962;28;19910;-65
2022/01/25 03:26:44;;;;;;;15.95;10.15;;;;;;;;;;4953179;29;20428;-65
2022/01/25 03:29:09;;;;;;;16.48;11.23;;;;;;;;;;4952630;29;20126;-65
2022/01/25 03:31:34;;;;;;;16.33;11.38;;;;;;;;;;4954791;28;20019;-65
2022/01/25 03:33:59;;;;;;;14.68;10.00;;;;;;;;;;4946466;28;20169;-64
2022/01/25 03:36:25;;;;;;;13.88;9.70;;;;;;;;;;4953895;28;20023;-66
2022/01/25 03:38:50;;;;;;;16.33;10.55;;;;;;;;;;4952701;29;20082;-65
2022/01/25 03:41:16;;;;;;;16.70;11.95;;;;;;;;;;4952148;28;20015;-65
2022/01/25 03:43:43;;;;;;;15.60;10.40;;;;;;;;;;4950121;28;20158;-66
2022/01/25 03:46:18;;;;;;;15.25;9.75;;;;;;;;;;4954554;29;20079;-66
2022/01/25 03:51:27;;;;;;;13.50;8.85;;;;;;;;;;4951027;28;20090;-65
2022/01/25 03:53:53;;;;;;;12.80;9.27;;;;;;;;;;4952393;28;20480;-65
2022/01/25 03:56:18;;;;;;;14.90;9.90;;;;;;;;;;4954705;29;20370;-66
2022/01/25 03:58:44;;;;;;;11.80;9.10;;;;;;;;;;4953802;28;20029;-66
2022/01/25 04:01:09;;;;;;;12.63;9.10;;;;;;;;;;4952463;29;20507;-66
2022/01/25 04:03:40;;;;;;;11.82;7.53;;;;;;;;;;4947637;28;20042;-65
2022/01/25 04:06:05;;;;;;;12.10;8.38;;;;;;;;;;4953615;29;20026;-66
2022/01/25 04:08:33;;;;;;;10.27;7.57;;;;;;;;;;4954122;28;20436;-65
2022/01/25 04:10:58;;;;;;;13.20;8.30;;;;;;;;;;4953466;29;20023;-66
2022/01/25 04:13:24;;;;;;;10.68;8.25;;;;;;;;;;4952850;28;20074;-65
2022/01/25 04:15:52;;;;;;;11.50;8.23;;;;;;;;;;4952019;29;20400;-69
2022/01/25 04:20:54;;;;;;;8.07;5.43;;;;;;;;;;4948845;29;20039;-66
2022/01/25 04:26:03;;;;;;;11.35;7.88;;;;;;;;;;4952523;28;20578;-66
2022/01/25 04:28:28;;;;;;;12.60;7.97;;;;;;;;;;4951488;28;20110;-65
2022/01/25 04:30:53;;;;;;;11.68;8.05;;;;;;;;;;4946609;28;20027;-65
2022/01/25 04:33:23;;;;;;;11.23;7.60;;;;;;;;;;4944312;29;20031;-66
2022/01/25 04:36:57;;;;;;;12.43;8.27;;;;;;;;;;4946013;28;20103;-65
2022/01/25 04:49:43;;;;;;;14.27;8.68;;;;;;;;;;4951674;29;20139;-64
2022/01/25 04:52:16;;;;;;;13.07;8.93;;;;;;;;;;4949527;28;20050;-65
2022/01/25 04:57:35;;;;;;;15.10;9.68;;;;;;;;;;4952309;29;20439;-65
2022/01/25 05:00:11;;;;;;;16.55;11.07;;;;;;;;;;4952480;29;20468;-65
2022/01/25 05:02:50;;;;;;;16.50;10.00;;;;;;;;;;4951324;29;20389;-65
2022/01/25 05:05:22;;;;;;;15.90;9.93;;;;;;;;;;4950479;29;20023;-66
2022/01/25 05:07:58;;;;;;;16.83;9.60;;;;;;;;;;4947705;29;20027;-66
2022/01/25 05:10:23;;;;;;;16.52;10.32;;;;;;;;;;4953750;28;20038;-65
2022/01/25 05:13:07;;;;;;;15.52;9.88;;;;;;;;;;4950819;29;20027;-65
2022/01/25 05:16:14;;;;;;;15.75;9.95;;;;;;;;;;4951234;28;20023;-65
2022/01/25 05:18:36;;;;;;;15.68;10.30;;;;;;;;;;4951383;28;20114;-65
2022/01/25 05:23:45;;;;;;;16.25;9.88;;;;;;;;;;4947040;29;20572;-65
2022/01/25 05:26:10;;;;;;;17.05;11.15;;;;;;;;;;4950748;28;20409;-65
2022/01/25 05:28:35;;;;;;;17.38;11.25;;;;;;;;;;4951469;28;20031;-65
2022/01/25 05:31:00;;;;;;;18.45;11.30;;;;;;;;;;4944087;28;20429;-65
2022/01/25 05:33:26;;;;;;;19.38;12.15;;;;;;;;;;4953286;28;20024;-66
2022/01/25 05:35:51;;;;;;;18.77;11.73;;;;;;;;;;4950225;28;20034;-64
2022/01/25 05:38:16;;;;;;;19.10;12.05;;;;;;;;;;4953076;28;20027;-65
2022/01/25 05:46:03;;;;;;;20.80;12.98;;;;;;;;;;4948715;28;20108;-65
2022/01/25 05:48:23;;;;;;;;;;;;;;;;;;4952348;28;20035;-65
2022/01/25 05:50:49;;;;;;;17.35;11.13;;;;;;;;;;4949627;28;19918;-65
2022/01/25 05:53:14;;;;;;;18.70;11.95;;;;;;;;;;4952090;29;20039;-65
2022/01/25 05:55:39;;;;;;;19.35;11.85;;;;;;;;;;4964671;28;20047;-65
2022/01/25 05:58:04;;;;;;;20.58;12.55;;;;;;;;;;4952825;28;20035;-66
2022/01/25 06:00:29;;;;;;;20.45;12.82;;;;;;;;;;4950816;28;20031;-64
2022/01/25 06:02:56;;;;;;;17.65;11.20;;;;;;;;;;4952678;28;20472;-65
2022/01/25 06:05:23;;;;;;;25.33;13.32;;;;;;;;;;4949821;28;20032;-65
2022/01/25 06:07:48;;;;;;;23.98;14.32;;;;;;;;;;4951894;28;20039;-65
2022/01/25 06:10:13;;;;;;;28.40;15.25;;;;;;;;;;4950905;28;20027;-66
2022/01/25 06:12:42;;;;;;;24.83;14.80;;;;;;;;;;4954557;28;20050;-65
2022/01/25 06:15:07;;;;;;;22.02;13.82;;;;;;;;;;4951976;28;20028;-66
2022/01/25 06:17:32;;;;;;;21.73;13.70;;;;;;;;;;4952485;28;20115;-66
2022/01/25 06:19:58;;;;;;;26.23;15.18;;;;;;;;;;4952517;28;20036;-66
2022/01/25 06:22:23;;;;;;;24.45;14.38;;;;;;;;;;4953500;29;20035;-66
2022/01/25 06:24:48;;;;;;;21.73;13.90;;;;;;;;;;4953496;28;21015;-66
2022/01/25 06:27:13;;;;;;;24.60;14.50;;;;;;;;;;4952572;28;20530;-66
2022/01/25 06:29:39;;;;;;;23.08;14.10;;;;;;;;;;4953679;28;20046;-66
2022/01/25 06:32:04;;;;;;;24.38;13.48;;;;;;;;;;4958607;28;20395;-66
2022/01/25 06:34:29;;;;;;;20.45;12.88;;;;;;;;;;4971320;28;20102;-65
2022/01/25 06:36:55;;;;;;;24.33;14.07;;;;;;;;;;4956308;28;20516;-66
2022/01/25 06:39:20;;;;;;;24.10;14.32;;;;;;;;;;4954930;28;20126;-66
2022/01/25 06:41:45;;;;;;;21.25;12.68;;;;;;;;;;4961390;28;20026;-66
2022/01/25 06:44:10;;;;;;;21.35;12.73;;;;;;;;;;4956057;28;20034;-65
2022/01/25 06:46:36;;;;;;;24.08;13.57;;;;;;;;;;4954662;29;20472;-66
2022/01/25 06:49:01;;;;;;;21.70;12.82;;;;;;;;;;4955309;28;20380;-65
2022/01/25 06:51:27;;;;;;;18.98;12.30;;;;;;;;;;4953956;28;20050;-66
2022/01/25 06:53:53;;;;;;;18.95;11.60;;;;;;;;;;4954646;28;20110;-66
2022/01/25 06:56:18;;;;;;;21.75;13.25;;;;;;;;;;4952882;29;20114;-66
2022/01/25 06:58:44;;;;;;;22.60;13.27;;;;;;;;;;4955396;28;20035;-67
2022/01/25 07:01:10;;;;;;;20.67;12.93;;;;;;;;;;4955578;28;20031;-65
2022/01/25 07:03:35;;;;;;;21.38;12.18;;;;;;;;;;4958458;28;20031;-66
2022/01/25 07:06:00;;;;;;;20.77;12.85;;;;;;;;;;4954569;29;20496;-66
2022/01/25 07:08:25;;;;;;;19.50;11.50;;;;;;;;;;4955230;28;20504;-67
2022/01/25 07:10:51;;;;;;;20.25;13.05;;;;;;;;;;4955296;28;20081;-66
2022/01/25 07:13:16;;;;;;;19.95;11.75;;;;;;;;;;4956097;28;20135;-67
2022/01/25 07:15:41;;;;;;;19.50;13.23;;;;;;;;;;4953436;28;20023;-67
2022/01/25 07:18:06;;;;;;;20.45;12.20;;;;;;;;;;4970602;28;20447;-67
2022/01/25 07:20:31;;;;;;;18.88;11.63;;;;;;;;;;4950933;28;20358;-66
2022/01/25 07:22:57;;;;;;;19.40;12.50;;;;;;;;;;4955861;28;20028;-66
2022/01/25 07:25:22;;;;;;;19.75;11.93;;;;;;;;;;4953727;29;20439;-66
2022/01/25 07:27:47;;;;;;;20.73;12.35;;;;;;;;;;4954645;28;20035;-65
2022/01/25 07:30:13;;;;;;;22.17;12.30;;;;;;;;;;4956394;28;20023;-64
2022/01/25 07:32:38;;;;;;;18.92;11.75;;;;;;;;;;4974692;28;20022;-65
2022/01/25 07:35:04;;;;;;;18.73;11.98;;;;;;;;;;4974629;28;20045;-65
2022/01/25 07:37:29;;;;;;;18.25;12.68;;;;;;;;;;4962940;28;20023;-65
2022/01/25 07:39:56;;;;;;;21.83;13.45;;;;;;;;;;4954455;28;20473;-66
2022/01/25 07:42:21;;;;;;;20.08;12.55;;;;;;;;;;4955010;28;20058;-66
2022/01/25 07:44:47;;;;;;;19.45;12.30;;;;;;;;;;4954996;28;20023;-65
2022/01/25 07:47:12;;;;;;;20.98;12.48;;;;;;;;;;4956142;28;20039;-65
2022/01/25 07:49:37;;;;;;;19.75;12.38;;;;;;;;;;4954388;28;20031;-65
2022/01/25 07:52:03;;;;;;;19.40;11.77;;;;;;;;;;4953139;28;20107;-66
2022/01/25 07:54:28;;;;;;;21.55;12.25;;;;;;;;;;4943893;29;20031;-66
2022/01/25 07:56:53;;;;;;;20.10;12.73;;;;;;;;;;4954873;29;20121;-65
2022/01/25 07:59:19;;;;;;;20.13;11.93;;;;;;;;;;4954014;28;20039;-65
2022/01/25 08:01:44;;;;;;;18.55;12.25;;;;;;;;;;4938582;28;20020;-66
2022/01/25 08:04:10;;;;;;;20.48;12.90;;;;;;;;;;4967454;28;20566;-66
2022/01/25 08:06:36;;;;;;;22.83;13.30;;;;;;;;;;4954756;28;20473;-66
2022/01/25 08:09:01;;;;;;;19.77;13.43;;;;;;;;;;4961463;28;20026;-66
2022/01/25 08:11:27;;;;;;;19.02;12.50;;;;;;;;;;4958586;28;20062;-65
2022/01/25 08:13:59;;;;;;;23.00;14.25;;;;;;;;;;4960964;28;20066;-65
2022/01/25 08:16:25;;;;;;;20.92;13.05;;;;;;;;;;4948906;29;20038;-65
2022/01/25 08:18:50;;;;;;;21.38;13.75;;;;;;;;;;4944358;28;20039;-66
2022/01/25 08:21:15;;;;;;;18.60;12.80;;;;;;;;;;4951591;28;20016;-65
2022/01/25 08:23:40;;;;;;;23.80;14.27;;;;;;;;;;4951735;28;20027;-64
2022/01/25 08:26:05;;;;;;;25.20;13.85;;;;;;;;;;4953550;28;20074;-66
2022/01/25 08:28:32;;;;;;;19.05;12.30;;;;;;;;;;4951221;28;20042;-65
2022/01/25 08:30:58;;;;;;;21.00;13.10;;;;;;;;;;4952395;28;20046;-65
2022/01/25 08:33:23;;;;;;;19.63;13.07;;;;;;;;;;4953205;28;20468;-64
2022/01/25 08:35:48;;;;;;;18.92;12.35;;;;;;;;;;4968451;28;20024;-65
2022/01/25 08:38:13;;;;;;;22.33;13.13;;;;;;;;;;4952906;28;20035;-65
2022/01/25 08:40:38;;;;;;;22.13;13.13;;;;;;;;;;4952773;28;20035;-65
2022/01/25 08:43:04;;;;;;;22.15;13.40;;;;;;;;;;4951541;28;20146;-66
2022/01/25 08:45:30;;;;;;;20.65;13.77;;;;;;;;;;4953631;28;20567;-66
2022/01/25 08:47:55;;;;;;;22.08;14.95;;;;;;;;;;4968059;28;20082;-65
2022/01/25 08:50:20;;;;;;;20.38;13.38;;;;;;;;;;4951577;28;20423;-66
2022/01/25 08:52:45;;;;;;;20.75;13.77;;;;;;;;;;4948121;28;20106;-66
2022/01/25 08:55:10;;;;;;;19.40;13.30;;;;;;;;;;4953371;28;20027;-66
2022/01/25 08:57:36;;;;;;;21.73;13.40;;;;;;;;;;4953352;28;20035;-65
2022/01/25 09:00:04;;;;;;;22.00;13.52;;;;;;;;;;4952977;28;20031;-66
2022/01/25 09:02:29;;;;;;;23.02;14.07;;;;;;;;;;4953248;28;20031;-66
2022/01/25 09:04:54;;;;;;;21.15;13.30;;;;;;;;;;4942893;28;20031;-66
2022/01/25 09:07:19;;;;;;;22.17;14.20;;;;;;;;;;4950484;29;20077;-66
2022/01/25 09:09:45;;;;;;;20.98;13.88;;;;;;;;;;4952834;28;20043;-66
2022/01/25 09:12:10;;;;;;;21.10;13.27;;;;;;;;;;4953241;28;20067;-66
2022/01/25 09:14:35;;;;;;;21.42;14.70;;;;;;;;;;4958556;28;20038;-66
2022/01/25 09:17:01;;;;;;;26.67;15.15;;;;;;;;;;4953482;28;20231;-66
2022/01/25 09:19:26;;;;;;;21.98;14.23;;;;;;;;;;4951009;28;20035;-66
2022/01/25 09:21:51;;;;;;;22.08;14.10;;;;;;;;;;4963478;28;20054;-66
2022/01/25 09:24:16;;;;;;;24.00;14.23;;;;;;;;;;4953631;28;20031;-67
2022/01/25 09:26:42;;;;;;;20.23;13.70;;;;;;;;;;4947501;28;20566;-67
2022/01/25 09:29:07;;;;;;;22.35;14.15;;;;;;;;;;4952007;28;20038;-66
2022/01/25 09:31:32;;;;;;;22.45;14.52;;;;;;;;;;4952640;28;20480;-67
2022/01/25 09:33:57;;;;;;;19.15;13.52;;;;;;;;;;4950338;28;20194;-66
2022/01/25 09:36:24;;;;;;;21.10;13.57;;;;;;;;;;4966922;28;20480;-64
2022/01/25 09:38:50;;;;;;;20.65;14.00;;;;;;;;;;4955189;28;20520;-66
2022/01/25 09:41:15;;;;;;;20.80;13.52;;;;;;;;;;4952428;29;20170;-65
2022/01/25 09:43:40;;;;;;;24.00;15.45;;;;;;;;;;4953029;28;20448;-64
2022/01/25 09:46:05;;;;;;;20.85;13.85;;;;;;;;;;4954327;28;20031;-64
2022/01/25 09:48:31;;;;;;;23.52;15.10;;;;;;;;;;4956083;28;20038;-65
2022/01/25 09:50:57;;;;;;;20.98;13.38;;;;;;;;;;4956175;28;20035;-65
2022/01/25 09:53:24;;;;;;;22.95;13.95;;;;;;;;;;4962322;28;20035;-66
2022/01/25 09:55:49;;;;;;;21.73;14.65;;;;;;;;;;4955494;28;20035;-65
2022/01/25 09:58:14;;;;;;;24.10;14.80;;;;;;;;;;4968239;28;20067;-65
2022/01/25 10:00:45;;;;;;;19.73;13.82;;;;;;;;;;4954657;28;20023;-65
2022/01/25 10:03:28;;;;;;;20.77;12.85;;;;;;;;;;4956709;28;20062;-65
2022/01/25 10:05:56;;;;;;;19.27;13.90;;;;;;;;;;4955879;29;20034;-66
2022/01/25 10:08:25;;;;;;;22.20;14.25;;;;;;;;;;4954068;28;20507;-66
2022/01/25 10:10:57;;;;;;;22.65;12.55;;;;;;;;;;4956446;28;20414;-66
2022/01/25 10:13:24;;;;;;;20.25;14.10;;;;;;;;;;4956432;28;20118;-66
2022/01/25 10:15:59;;;;;;;19.40;12.63;;;;;;;;;;4956395;28;20039;-66
2022/01/25 10:18:24;;;;;;;;;;;;;;;;;;4956854;28;20035;-67
2022/01/25 10:20:50;;;;;;;19.58;11.30;;;;;;;;;;4967884;28;19961;-66
2022/01/25 10:23:18;;;;;;;22.42;13.20;;;;;;;;;;4975028;28;20027;-66
2022/01/25 10:25:45;;;;;;;19.55;13.30;;;;;;;;;;4963155;28;20047;-65
2022/01/25 10:28:11;;;;;;;20.40;13.55;;;;;;;;;;4961650;28;20038;-66
2022/01/25 10:30:51;;;;;;;21.40;13.52;;;;;;;;;;4956135;28;20027;-67
2022/01/25 10:33:17;;;;;;;17.15;12.38;;;;;;;;;;4956191;28;20058;-66
2022/01/25 10:35:43;;;;;;;19.17;13.52;;;;;;;;;;4956028;28;20089;-66
2022/01/25 10:38:28;;;;;;;19.35;13.55;;;;;;;;;;4956468;28;20547;-66
2022/01/25 10:41:04;;;;;;;20.02;14.65;;;;;;;;;;4955561;28;20448;-65
2022/01/25 10:43:30;;;;;;;16.67;11.50;;;;;;;;;;4956308;28;20031;-66
2022/01/25 10:46:28;;;;;;;20.48;12.07;;;;;;;;;;4954254;29;20020;-66
2022/01/25 10:49:04;;;;;;;19.25;13.82;;;;;;;;;;4952990;28;20034;-65
2022/01/25 10:51:38;;;;;;;20.15;13.63;;;;;;;;;;4956475;28;20093;-65
2022/01/25 10:54:08;;;;;;;17.40;11.52;;;;;;;;;;4954556;28;20043;-64
2022/01/25 10:56:38;;;;;;;22.05;14.65;;;;;;;;;;4936512;29;20024;-65
2022/01/25 10:59:04;;;;;;;20.63;14.60;;;;;;;;;;4944938;28;20054;-65
2022/01/25 11:01:34;;;;;;;20.95;14.30;;;;;;;;;;4955456;28;20030;-65
2022/01/25 11:04:04;;;;;;;19.00;13.55;;;;;;;;;;4955647;28;20047;-66
2022/01/25 11:06:30;;;;;;;20.95;14.40;;;;;;;;;;4955794;28;20103;-66
2022/01/25 11:09:00;;;;;;;21.80;13.80;;;;;;;;;;4954465;28;20062;-65
2022/01/25 11:11:32;;;;;;;19.17;13.38;;;;;;;;;;4969811;28;20429;-65
2022/01/25 11:14:49;;;;;;;17.52;13.15;;;;;;;;;;4955438;28;20027;-66
2022/01/25 11:16:42;;;;;;;19.02;13.15;;;;;;;;;;4954500;28;20121;-64
2022/01/25 11:19:07;;;;;;;18.90;13.10;;;;;;;;;;4954992;28;20070;-65
2022/01/25 11:21:33;;;;;;;20.70;13.98;;;;;;;;;;4957229;28;20054;-65
2022/01/25 11:23:58;;;;;;;19.65;12.75;;;;;;;;;;4953914;28;20116;-66
2022/01/25 11:26:23;;;;;;;16.80;12.27;;;;;;;;;;4955027;28;20385;-66
2022/01/25 11:28:49;;;;;;;14.95;10.15;;;;;;;;;;4949044;29;20074;-66
2022/01/25 11:31:18;;;;;;;16.27;11.32;;;;;;;;;;4948868;28;20035;-66
2022/01/25 11:33:45;;;;;;;16.90;12.05;;;;;;;;;;4953676;28;20535;-66
2022/01/25 11:36:11;;;;;;;17.63;11.40;;;;;;;;;;4954376;29;20106;-66
2022/01/25 11:38:41;;;;;;;14.65;10.57;;;;;;;;;;4953654;28;20102;-66
2022/01/25 11:41:13;;;;;;;13.60;10.15;;;;;;;;;;4945528;29;20465;-66
2022/01/25 11:43:42;;;;;;;13.43;9.80;;;;;;;;;;4951999;29;20034;-67
2022/01/25 11:46:07;;;;;;;13.25;9.00;;;;;;;;;;4952785;28;20765;-66
2022/01/25 11:48:43;;;;;;;14.32;10.25;;;;;;;;;;4952718;29;20079;-66
2022/01/25 11:51:16;;;;;;;12.50;8.73;;;;;;;;;;4944723;28;20389;-66
2022/01/25 11:53:42;;;;;;;13.68;10.68;;;;;;;;;;4935099;29;20028;-65
2022/01/25 11:56:08;;;;;;;17.17;10.93;;;;;;;;;;4948955;29;20070;-66
2022/01/25 11:58:34;;;;;;;15.15;10.75;;;;;;;;;;4954295;28;20055;-66
2022/01/25 12:01:02;;;;;;;14.63;10.85;;;;;;;;;;4954046;28;20039;-66
2022/01/25 12:03:31;;;;;;;14.30;9.50;;;;;;;;;;4954455;28;20017;-66
2022/01/25 12:05:59;;;;;;;13.82;10.10;;;;;;;;;;4954010;28;20353;-66
2022/01/25 12:08:50;;;;;;;14.02;9.93;;;;;;;;;;4957201;28;20531;-65
2022/01/25 12:11:38;;;;;;;10.77;8.35;;;;;;;;;;4954077;28;20015;-65
2022/01/25 12:14:13;;;;;;;12.77;9.07;;;;;;;;;;4954657;28;20023;-65
2022/01/25 12:16:43;;;;;;;13.13;9.38;;;;;;;;;;4954291;28;20019;-66
2022/01/25 12:19:09;;;;;;;15.15;9.73;;;;;;;;;;4954221;28;20024;-66
2022/01/25 12:21:51;;;;;;;16.45;10.48;;;;;;;;;;4944106;28;20023;-66
2022/01/25 12:24:24;;;;;;;14.70;10.38;;;;;;;;;;4952243;28;20408;-66
2022/01/25 12:27:02;;;;;;;18.10;11.57;;;;;;;;;;4953589;28;20211;-71
2022/01/25 12:29:44;;;;;;;17.40;10.90;;;;;;;;;;4953518;28;20361;-70
2022/01/25 12:32:15;;;;;;;17.63;11.55;;;;;;;;;;4953792;29;20019;-70
2022/01/25 12:34:57;;;;;;;12.35;7.85;;;;;;;;;;4953552;29;20031;-70
2022/01/25 12:37:41;;;;;;;11.57;7.97;;;;;;;;;;4953781;28;20468;-70
2022/01/25 12:40:25;;;;;;;14.32;10.27;;;;;;;;;;4954969;28;20348;-69
2022/01/25 12:43:19;;;;;;;13.43;10.13;;;;;;;;;;4953117;28;20030;-66
2022/01/25 12:45:47;;;;;;;10.20;8.20;;;;;;;;;;4948811;28;20031;-65
2022/01/25 12:48:14;;;;;;;12.65;9.13;;;;;;;;;;4953089;28;20036;-67
2022/01/25 12:50:41;;;;;;;11.10;8.38;;;;;;;;;;4950139;28;20034;-68
2022/01/25 12:53:07;;;;;;;10.45;7.18;;;;;;;;;;4951862;29;20023;-66
2022/01/25 12:55:37;;;;;;;12.10;8.52;;;;;;;;;;4948924;28;20481;-66
2022/01/25 12:58:03;;;;;;;10.43;8.10;;;;;;;;;;4951723;29;20543;-66
2022/01/25 13:00:39;;;;;;;9.27;7.55;;;;;;;;;;4953059;28;20031;-66
2022/01/25 13:03:11;;;;;;;11.05;8.38;;;;;;;;;;4952771;29;20106;-66
2022/01/25 13:05:40;;;;;;;13.73;8.95;;;;;;;;;;4948265;29;20015;-67
2022/01/25 13:08:20;;;;;;;9.32;6.72;;;;;;;;;;4952700;28;20543;-66
2022/01/25 13:10:45;;;;;;;11.68;8.57;;;;;;;;;;4953037;28;20019;-67
2022/01/25 13:13:22;;;;;;;9.10;7.20;;;;;;;;;;4953280;29;20461;-67
2022/01/25 13:18:13;;;;;;;11.48;7.72;;;;;;;;;;4954066;28;20115;-66
2022/01/25 13:20:40;;;;;;;10.70;7.70;;;;;;;;;;4950575;28;20102;-67
2022/01/25 13:23:05;;;;;;;12.25;7.40;;;;;;;;;;4955675;28;20432;-67
2022/01/25 13:25:53;;;;;;;10.57;8.23;;;;;;;;;;4955400;29;20741;-67
2022/01/25 13:31:06;;;;;;;11.63;7.65;;;;;;;;;;4957339;29;20395;-68
2022/01/25 13:33:31;;;;;;;12.25;8.80;;;;;;;;;;4956243;28;20342;-66
2022/01/25 13:35:57;;;;;;;9.75;8.30;;;;;;;;;;4955982;28;20118;-67
2022/01/25 13:38:30;;;;;;;12.07;8.18;;;;;;;;;;4956582;28;20034;-67
2022/01/25 13:46:10;;;;;;;8.93;7.25;;;;;;;;;;4956758;28;20023;-67
2022/01/25 13:48:36;;;;;;;11.20;8.48;;;;;;;;;;4956432;29;20023;-67
2022/01/25 13:51:06;;;;;;;10.55;6.80;;;;;;;;;;4949225;29;20830;-68
2022/01/25 13:53:32;;;;;;;10.20;6.30;;;;;;;;;;4964312;28;20023;-66
2022/01/25 13:55:58;;;;;;;10.48;7.82;;;;;;;;;;4956971;28;20461;-68
2022/01/25 13:58:26;;;;;;;10.18;7.57;;;;;;;;;;4956508;28;20110;-67
2022/01/25 14:00:52;;;;;;;10.85;7.93;;;;;;;;;;4956390;28;20027;-68
2022/01/25 14:03:22;;;;;;;8.05;6.60;;;;;;;;;;4956608;29;20486;-68
2022/01/25 14:05:47;;;;;;;8.70;7.18;;;;;;;;;;4956276;29;20102;-68
2022/01/25 14:08:12;;;;;;;9.93;7.10;;;;;;;;;;4955446;29;20110;-67
2022/01/25 14:10:43;;;;;;;9.52;7.57;;;;;;;;;;4955324;29;20106;-67
2022/01/25 14:21:57;;;;;;;11.38;7.25;;;;;;;;;;4954040;28;20510;-66
2022/01/25 14:24:30;;;;;;;9.48;7.03;;;;;;;;;;4955175;28;20039;-67
2022/01/25 14:26:57;;;;;;;10.00;7.00;;;;;;;;;;4955522;28;20031;-68
2022/01/25 14:29:23;;;;;;;10.75;7.65;;;;;;;;;;4954846;29;20166;-68
2022/01/25 14:31:48;;;;;;;11.50;8.02;;;;;;;;;;4954828;28;20050;-68
2022/01/25 14:34:15;;;;;;;9.55;8.25;;;;;;;;;;4955937;29;20392;-67
2022/01/25 14:36:43;;;;;;;11.30;8.73;;;;;;;;;;4956283;28;20484;-68
2022/01/25 14:39:08;;;;;;;13.13;9.88;;;;;;;;;;4954716;28;20023;-67
2022/01/25 14:41:36;;;;;;;14.63;9.60;;;;;;;;;;4955373;29;20432;-67
2022/01/25 14:44:04;;;;;;;15.88;10.65;;;;;;;;;;4955835;28;20095;-64
2022/01/25 14:46:34;;;;;;;15.52;9.32;;;;;;;;;;4956253;28;20019;-67
2022/01/25 14:49:05;;;;;;;14.65;10.38;;;;;;;;;;4953620;28;20119;-67
2022/01/25 14:51:31;;;;;;;15.73;10.73;;;;;;;;;;4959861;28;20031;-68
2022/01/25 14:53:58;;;;;;;16.88;10.85;;;;;;;;;;4956229;28;20378;-67
2022/01/25 14:56:28;;;;;;;13.85;10.50;;;;;;;;;;4955606;28;20015;-67
2022/01/25 15:01:21;;;;;;;16.48;12.13;;;;;;;;;;4961078;28;20067;-67
2022/01/25 15:03:47;;;;;;;15.43;11.15;;;;;;;;;;4954458;28;20040;-67
2022/01/25 15:06:16;;;;;;;15.93;11.02;;;;;;;;;;4955386;28;20031;-67
2022/01/25 15:08:53;;;;;;;17.02;11.77;;;;;;;;;;4954409;29;20030;-67
2022/01/25 15:11:19;;;;;;;17.17;12.10;;;;;;;;;;4955168;29;20394;-67
2022/01/25 15:13:44;;;;;;;15.75;11.30;;;;;;;;;;4952838;28;20046;-67
2022/01/25 15:16:10;;;;;;;13.63;10.50;;;;;;;;;;4955088;28;20503;-67
2022/01/25 15:18:38;;;;;;;13.50;9.13;;;;;;;;;;4954403;29;20380;-66
2022/01/25 15:21:04;;;;;;;14.48;10.75;;;;;;;;;;4954792;28;20072;-67
2022/01/25 15:23:32;;;;;;;13.00;9.52;;;;;;;;;;4957959;28;20023;-67
2022/01/25 15:26:00;;;;;;;12.82;9.40;;;;;;;;;;4954602;28;20044;-68
2022/01/25 15:28:35;;;;;;;15.85;10.35;;;;;;;;;;4948313;28;20075;-66
2022/01/25 15:31:01;;;;;;;17.45;11.35;;;;;;;;;;4948110;29;20166;-68
2022/01/25 15:33:26;;;;;;;15.57;11.68;;;;;;;;;;4954021;29;20102;-67
2022/01/25 15:35:52;;;;;;;17.52;12.02;;;;;;;;;;4954592;28;20082;-69
2022/01/25 15:38:17;;;;;;;16.77;10.68;;;;;;;;;;4950555;28;20042;-68
2022/01/25 15:40:42;;;;;;;18.75;11.98;;;;;;;;;;4940770;29;20480;-68
2022/01/25 15:43:08;;;;;;;16.02;12.02;;;;;;;;;;4953658;28;20031;-67
2022/01/25 15:45:53;;;;;;;14.85;11.35;;;;;;;;;;4954079;29;20479;-68
2022/01/25 15:48:18;;;;;;;15.95;10.57;;;;;;;;;;4952684;29;20392;-68
2022/01/25 15:50:43;;;;;;;17.95;11.13;;;;;;;;;;4950068;28;20031;-68
2022/01/25 15:53:08;;;;;;;14.73;10.98;;;;;;;;;;4953276;28;20041;-67
2022/01/25 15:55:33;;;;;;;15.10;10.55;;;;;;;;;;4948463;28;20119;-68
2022/01/25 15:57:59;;;;;;;15.02;10.65;;;;;;;;;;4953733;28;20045;-66
2022/01/25 16:00:24;;;;;;;15.40;11.15;;;;;;;;;;4948884;28;20027;-67
2022/01/25 16:02:49;;;;;;;14.68;10.48;;;;;;;;;;4952508;28;20030;-68
2022/01/25 16:05:17;;;;;;;17.75;11.65;;;;;;;;;;4953971;29;20510;-67
2022/01/25 16:07:42;;;;;;;18.52;11.55;;;;;;;;;;4954181;28;20117;-66
2022/01/25 16:10:08;;;;;;;16.52;11.32;;;;;;;;;;4953185;28;20540;-67
2022/01/25 16:12:34;;;;;;;17.85;11.57;;;;;;;;;;4954021;28;20031;-67
2022/01/25 16:14:59;;;;;;;17.02;11.32;;;;;;;;;;4952110;29;20086;-68
2022/01/25 16:17:24;;;;;;;14.30;10.40;;;;;;;;;;4953778;28;20057;-67
2022/01/25 16:19:50;;;;;;;17.30;11.95;;;;;;;;;;4950602;28;20055;-67
2022/01/25 16:22:15;;;;;;;20.27;11.50;;;;;;;;;;4947817;29;20447;-67